sensor_id;sensor_type;location;lat;lon;timestamp;P1;durP1;ratioP1;P2;durP2;ratioP2
1987;SDS011;12775;46.994;15.498;2022-12-31T00:01:27;43.66;;;31.38;;
1987;SDS011;12775;46.994;15.498;2022-12-31T00:03:55;42.86;;;27.58;;
1987;SDS011;12775;46.994;15.498;2022-12-31T00:06:23;53.36;;;38.26;;
1987;SDS011;12775;46.994;15.498;2022-12-31T00:08:53;42.52;;;31.08;;
1987;SDS011;12775;46.994;15.498;2022-12-31T00:11:21;37.42;;;28.24;;
1987;SDS011;12775;46.994;15.498;2022-12-31T00:13:48;52.04;;;33.72;;
1987;SDS011;12775;46.994;15.498;2022-12-31T00:16:17;42.76;;;30.54;;
1987;SDS011;12775;46.994;15.498;2022-12-31T00:18:45;38.22;;;30.68;;
1987;SDS011;12775;46.994;15.498;2022-12-31T00:21:12;41.80;;;31.12;;
1987;SDS011;12775;46.994;15.498;2022-12-31T00:23:39;45.76;;;31.22;;
1987;SDS011;12775;46.994;15.498;2022-12-31T00:26:07;43.44;;;31.06;;
1987;SDS011;12775;46.994;15.498;2022-12-31T00:28:35;52.58;;;37.08;;
1987;SDS011;12775;46.994;15.498;2022-12-31T00:31:03;46.92;;;32.96;;
1987;SDS011;12775;46.994;15.498;2022-12-31T00:33:32;68.88;;;46.70;;
1987;SDS011;12775;46.994;15.498;2022-12-31T00:36:03;40.84;;;32.06;;
1987;SDS011;12775;46.994;15.498;2022-12-31T00:38:31;44.60;;;32.46;;
1987;SDS011;12775;46.994;15.498;2022-12-31T00:40:58;41.96;;;30.54;;
1987;SDS011;12775;46.994;15.498;2022-12-31T00:43:26;35.24;;;28.06;;
1987;SDS011;12775;46.994;15.498;2022-12-31T00:45:53;46.82;;;31.28;;
1987;SDS011;12775;46.994;15.498;2022-12-31T00:48:21;37.90;;;30.20;;
1987;SDS011;12775;46.994;15.498;2022-12-31T00:50:48;46.40;;;36.44;;
1987;SDS011;12775;46.994;15.498;2022-12-31T00:53:15;43.80;;;33.30;;
1987;SDS011;12775;46.994;15.498;2022-12-31T00:55:43;40.70;;;28.92;;
1987;SDS011;12775;46.994;15.498;2022-12-31T00:58:10;40.28;;;28.42;;
1987;SDS011;12775;46.994;15.498;2022-12-31T01:00:38;48.12;;;31.46;;
1987;SDS011;12775;46.994;15.498;2022-12-31T01:03:05;44.20;;;32.10;;
1987;SDS011;12775;46.994;15.498;2022-12-31T01:05:32;36.92;;;29.18;;
1987;SDS011;12775;46.994;15.498;2022-12-31T01:07:59;42.32;;;29.72;;
1987;SDS011;12775;46.994;15.498;2022-12-31T01:10:27;41.68;;;29.36;;
1987;SDS011;12775;46.994;15.498;2022-12-31T01:13:00;37.42;;;27.56;;
1987;SDS011;12775;46.994;15.498;2022-12-31T01:15:27;40.42;;;31.64;;
1987;SDS011;12775;46.994;15.498;2022-12-31T01:17:55;40.78;;;27.44;;
1987;SDS011;12775;46.994;15.498;2022-12-31T01:20:22;30.30;;;25.80;;
1987;SDS011;12775;46.994;15.498;2022-12-31T01:22:50;32.76;;;26.28;;
1987;SDS011;12775;46.994;15.498;2022-12-31T01:25:17;36.52;;;26.46;;
1987;SDS011;12775;46.994;15.498;2022-12-31T01:27:45;34.94;;;23.68;;
1987;SDS011;12775;46.994;15.498;2022-12-31T01:30:12;31.06;;;25.16;;
1987;SDS011;12775;46.994;15.498;2022-12-31T01:32:40;36.10;;;27.94;;
1987;SDS011;12775;46.994;15.498;2022-12-31T01:35:08;34.68;;;27.50;;
1987;SDS011;12775;46.994;15.498;2022-12-31T01:37:35;38.50;;;25.90;;
1987;SDS011;12775;46.994;15.498;2022-12-31T01:40:03;34.78;;;24.18;;
1987;SDS011;12775;46.994;15.498;2022-12-31T01:42:30;36.28;;;27.04;;
1987;SDS011;12775;46.994;15.498;2022-12-31T01:44:58;33.30;;;24.04;;
1987;SDS011;12775;46.994;15.498;2022-12-31T01:47:41;28.16;;;23.46;;
1987;SDS011;12775;46.994;15.498;2022-12-31T01:50:08;34.64;;;25.14;;
1987;SDS011;12775;46.994;15.498;2022-12-31T01:52:34;32.16;;;22.34;;
1987;SDS011;12775;46.994;15.498;2022-12-31T01:55:06;33.14;;;23.74;;
1987;SDS011;12775;46.994;15.498;2022-12-31T01:57:33;30.86;;;24.94;;
1987;SDS011;12775;46.994;15.498;2022-12-31T02:00:00;27.98;;;20.96;;
1987;SDS011;12775;46.994;15.498;2022-12-31T02:02:28;27.46;;;20.40;;
1987;SDS011;12775;46.994;15.498;2022-12-31T02:04:56;25.76;;;20.22;;
1987;SDS011;12775;46.994;15.498;2022-12-31T02:07:23;29.12;;;21.16;;
1987;SDS011;12775;46.994;15.498;2022-12-31T02:09:51;32.26;;;20.50;;
1987;SDS011;12775;46.994;15.498;2022-12-31T02:12:18;80.14;;;52.82;;
1987;SDS011;12775;46.994;15.498;2022-12-31T02:14:47;62.18;;;42.72;;
1987;SDS011;12775;46.994;15.498;2022-12-31T02:17:23;45.46;;;31.76;;
1987;SDS011;12775;46.994;15.498;2022-12-31T02:22:42;41.12;;;29.58;;
1987;SDS011;12775;46.994;15.498;2022-12-31T02:25:14;29.06;;;21.24;;
1987;SDS011;12775;46.994;15.498;2022-12-31T02:27:45;36.92;;;25.56;;
1987;SDS011;12775;46.994;15.498;2022-12-31T02:30:23;29.68;;;21.38;;
1987;SDS011;12775;46.994;15.498;2022-12-31T02:32:57;28.94;;;21.08;;
1987;SDS011;12775;46.994;15.498;2022-12-31T02:35:24;26.28;;;18.46;;
1987;SDS011;12775;46.994;15.498;2022-12-31T02:37:51;25.80;;;20.64;;
1987;SDS011;12775;46.994;15.498;2022-12-31T02:40:19;25.42;;;21.14;;
1987;SDS011;12775;46.994;15.498;2022-12-31T02:42:46;25.62;;;19.02;;
1987;SDS011;12775;46.994;15.498;2022-12-31T02:45:14;29.70;;;23.04;;
1987;SDS011;12775;46.994;15.498;2022-12-31T02:47:49;23.62;;;18.06;;
1987;SDS011;12775;46.994;15.498;2022-12-31T02:53:17;24.78;;;19.68;;
1987;SDS011;12775;46.994;15.498;2022-12-31T02:55:49;42.22;;;28.90;;
1987;SDS011;12775;46.994;15.498;2022-12-31T02:58:22;29.74;;;22.26;;
1987;SDS011;12775;46.994;15.498;2022-12-31T03:00:48;24.94;;;19.70;;
1987;SDS011;12775;46.994;15.498;2022-12-31T03:03:21;30.14;;;20.98;;
1987;SDS011;12775;46.994;15.498;2022-12-31T03:05:50;21.10;;;18.34;;
1987;SDS011;12775;46.994;15.498;2022-12-31T03:08:20;26.14;;;18.68;;
1987;SDS011;12775;46.994;15.498;2022-12-31T03:10:47;27.76;;;19.98;;
1987;SDS011;12775;46.994;15.498;2022-12-31T03:13:15;30.48;;;22.30;;
1987;SDS011;12775;46.994;15.498;2022-12-31T03:15:42;26.44;;;19.52;;
1987;SDS011;12775;46.994;15.498;2022-12-31T03:18:12;26.26;;;18.96;;
1987;SDS011;12775;46.994;15.498;2022-12-31T03:20:39;21.12;;;17.74;;
1987;SDS011;12775;46.994;15.498;2022-12-31T03:23:13;25.58;;;18.86;;
1987;SDS011;12775;46.994;15.498;2022-12-31T03:25:39;25.26;;;18.62;;
1987;SDS011;12775;46.994;15.498;2022-12-31T03:28:07;27.82;;;19.42;;
1987;SDS011;12775;46.994;15.498;2022-12-31T03:30:36;104.98;;;66.72;;
1987;SDS011;12775;46.994;15.498;2022-12-31T03:33:04;45.26;;;32.78;;
1987;SDS011;12775;46.994;15.498;2022-12-31T03:35:32;31.28;;;22.46;;
1987;SDS011;12775;46.994;15.498;2022-12-31T03:37:59;24.86;;;20.64;;
1987;SDS011;12775;46.994;15.498;2022-12-31T03:40:26;29.76;;;18.88;;
1987;SDS011;12775;46.994;15.498;2022-12-31T03:42:53;26.82;;;19.92;;
1987;SDS011;12775;46.994;15.498;2022-12-31T03:45:21;21.96;;;17.66;;
1987;SDS011;12775;46.994;15.498;2022-12-31T03:47:48;22.84;;;16.36;;
1987;SDS011;12775;46.994;15.498;2022-12-31T03:50:16;18.82;;;16.38;;
1987;SDS011;12775;46.994;15.498;2022-12-31T03:52:43;21.72;;;16.18;;
1987;SDS011;12775;46.994;15.498;2022-12-31T03:55:10;29.06;;;20.68;;
1987;SDS011;12775;46.994;15.498;2022-12-31T03:57:38;31.46;;;19.58;;
1987;SDS011;12775;46.994;15.498;2022-12-31T04:00:06;27.72;;;17.82;;
1987;SDS011;12775;46.994;15.498;2022-12-31T04:02:34;23.46;;;17.74;;
1987;SDS011;12775;46.994;15.498;2022-12-31T04:05:02;24.96;;;16.32;;
1987;SDS011;12775;46.994;15.498;2022-12-31T04:07:30;26.92;;;14.78;;
1987;SDS011;12775;46.994;15.498;2022-12-31T04:09:58;21.56;;;15.56;;
1987;SDS011;12775;46.994;15.498;2022-12-31T04:12:25;25.42;;;18.58;;
1987;SDS011;12775;46.994;15.498;2022-12-31T04:14:52;27.74;;;19.34;;
1987;SDS011;12775;46.994;15.498;2022-12-31T04:17:20;29.70;;;20.08;;
1987;SDS011;12775;46.994;15.498;2022-12-31T04:19:48;29.70;;;19.96;;
1987;SDS011;12775;46.994;15.498;2022-12-31T04:22:15;22.44;;;18.88;;
1987;SDS011;12775;46.994;15.498;2022-12-31T04:24:42;29.30;;;22.02;;
1987;SDS011;12775;46.994;15.498;2022-12-31T04:27:09;32.48;;;23.76;;
1987;SDS011;12775;46.994;15.498;2022-12-31T04:29:36;30.70;;;20.20;;
1987;SDS011;12775;46.994;15.498;2022-12-31T04:32:04;24.30;;;20.60;;
1987;SDS011;12775;46.994;15.498;2022-12-31T04:34:30;24.34;;;19.30;;
1987;SDS011;12775;46.994;15.498;2022-12-31T04:36:58;26.48;;;20.34;;
1987;SDS011;12775;46.994;15.498;2022-12-31T04:39:26;24.70;;;18.84;;
1987;SDS011;12775;46.994;15.498;2022-12-31T04:41:53;25.28;;;18.70;;
1987;SDS011;12775;46.994;15.498;2022-12-31T04:44:21;27.88;;;21.30;;
1987;SDS011;12775;46.994;15.498;2022-12-31T04:46:48;23.92;;;20.12;;
1987;SDS011;12775;46.994;15.498;2022-12-31T04:49:15;22.26;;;18.84;;
1987;SDS011;12775;46.994;15.498;2022-12-31T04:51:43;32.54;;;20.72;;
1987;SDS011;12775;46.994;15.498;2022-12-31T04:54:10;24.68;;;20.42;;
1987;SDS011;12775;46.994;15.498;2022-12-31T04:56:38;33.30;;;21.48;;
1987;SDS011;12775;46.994;15.498;2022-12-31T04:59:06;26.36;;;20.02;;
1987;SDS011;12775;46.994;15.498;2022-12-31T05:01:33;28.52;;;20.62;;
1987;SDS011;12775;46.994;15.498;2022-12-31T05:04:00;25.76;;;19.80;;
1987;SDS011;12775;46.994;15.498;2022-12-31T05:06:28;26.62;;;20.50;;
1987;SDS011;12775;46.994;15.498;2022-12-31T05:08:55;33.16;;;19.58;;
1987;SDS011;12775;46.994;15.498;2022-12-31T05:11:24;21.02;;;17.50;;
1987;SDS011;12775;46.994;15.498;2022-12-31T05:13:52;26.10;;;18.44;;
1987;SDS011;12775;46.994;15.498;2022-12-31T05:16:19;25.06;;;18.24;;
1987;SDS011;12775;46.994;15.498;2022-12-31T05:18:47;27.44;;;16.44;;
1987;SDS011;12775;46.994;15.498;2022-12-31T05:21:16;20.20;;;15.78;;
1987;SDS011;12775;46.994;15.498;2022-12-31T05:23:41;23.34;;;18.08;;
1987;SDS011;12775;46.994;15.498;2022-12-31T05:26:09;21.38;;;16.10;;
1987;SDS011;12775;46.994;15.498;2022-12-31T05:28:36;16.30;;;13.86;;
1987;SDS011;12775;46.994;15.498;2022-12-31T05:31:03;19.32;;;16.02;;
1987;SDS011;12775;46.994;15.498;2022-12-31T05:33:32;26.34;;;17.72;;
1987;SDS011;12775;46.994;15.498;2022-12-31T05:35:59;35.36;;;22.52;;
1987;SDS011;12775;46.994;15.498;2022-12-31T05:38:26;25.40;;;19.28;;
1987;SDS011;12775;46.994;15.498;2022-12-31T05:40:58;36.16;;;27.28;;
1987;SDS011;12775;46.994;15.498;2022-12-31T05:43:29;30.60;;;24.68;;
1987;SDS011;12775;46.994;15.498;2022-12-31T05:46:00;27.32;;;22.68;;
1987;SDS011;12775;46.994;15.498;2022-12-31T05:48:27;30.84;;;24.14;;
1987;SDS011;12775;46.994;15.498;2022-12-31T05:50:54;31.06;;;22.74;;
1987;SDS011;12775;46.994;15.498;2022-12-31T05:53:22;34.32;;;23.94;;
1987;SDS011;12775;46.994;15.498;2022-12-31T05:55:49;27.58;;;19.18;;
1987;SDS011;12775;46.994;15.498;2022-12-31T05:58:17;27.08;;;20.32;;
1987;SDS011;12775;46.994;15.498;2022-12-31T06:00:44;26.70;;;19.04;;
1987;SDS011;12775;46.994;15.498;2022-12-31T06:03:11;21.84;;;15.62;;
1987;SDS011;12775;46.994;15.498;2022-12-31T06:05:40;15.38;;;12.64;;
1987;SDS011;12775;46.994;15.498;2022-12-31T06:08:07;17.40;;;13.30;;
1987;SDS011;12775;46.994;15.498;2022-12-31T06:10:35;15.80;;;12.58;;
1987;SDS011;12775;46.994;15.498;2022-12-31T06:13:03;18.88;;;13.90;;
1987;SDS011;12775;46.994;15.498;2022-12-31T06:15:30;19.60;;;12.72;;
1987;SDS011;12775;46.994;15.498;2022-12-31T06:17:57;12.88;;;10.96;;
1987;SDS011;12775;46.994;15.498;2022-12-31T06:20:25;15.64;;;11.18;;
1987;SDS011;12775;46.994;15.498;2022-12-31T06:22:53;21.10;;;14.40;;
1987;SDS011;12775;46.994;15.498;2022-12-31T06:25:21;15.80;;;13.48;;
1987;SDS011;12775;46.994;15.498;2022-12-31T06:27:48;21.40;;;14.62;;
1987;SDS011;12775;46.994;15.498;2022-12-31T06:30:15;24.90;;;19.36;;
1987;SDS011;12775;46.994;15.498;2022-12-31T06:32:43;28.28;;;21.32;;
1987;SDS011;12775;46.994;15.498;2022-12-31T06:35:10;21.66;;;19.06;;
1987;SDS011;12775;46.994;15.498;2022-12-31T06:37:38;23.70;;;20.46;;
1987;SDS011;12775;46.994;15.498;2022-12-31T06:40:07;40.32;;;23.78;;
1987;SDS011;12775;46.994;15.498;2022-12-31T06:42:36;33.34;;;22.06;;
1987;SDS011;12775;46.994;15.498;2022-12-31T06:45:04;25.88;;;19.52;;
1987;SDS011;12775;46.994;15.498;2022-12-31T06:47:31;25.36;;;19.30;;
1987;SDS011;12775;46.994;15.498;2022-12-31T06:49:59;28.28;;;21.28;;
1987;SDS011;12775;46.994;15.498;2022-12-31T06:52:26;28.02;;;23.10;;
1987;SDS011;12775;46.994;15.498;2022-12-31T06:54:54;23.52;;;19.22;;
1987;SDS011;12775;46.994;15.498;2022-12-31T06:57:22;29.84;;;20.88;;
1987;SDS011;12775;46.994;15.498;2022-12-31T06:59:50;29.14;;;20.36;;
1987;SDS011;12775;46.994;15.498;2022-12-31T07:02:25;27.24;;;21.68;;
1987;SDS011;12775;46.994;15.498;2022-12-31T07:05:27;26.32;;;20.20;;
1987;SDS011;12775;46.994;15.498;2022-12-31T07:07:48;25.22;;;19.82;;
1987;SDS011;12775;46.994;15.498;2022-12-31T07:10:37;26.28;;;20.78;;
1987;SDS011;12775;46.994;15.498;2022-12-31T07:13:06;28.26;;;20.92;;
1987;SDS011;12775;46.994;15.498;2022-12-31T07:15:40;29.38;;;21.52;;
1987;SDS011;12775;46.994;15.498;2022-12-31T07:18:23;30.54;;;20.98;;
1987;SDS011;12775;46.994;15.498;2022-12-31T07:20:49;25.40;;;19.44;;
1987;SDS011;12775;46.994;15.498;2022-12-31T07:23:17;28.60;;;21.06;;
1987;SDS011;12775;46.994;15.498;2022-12-31T07:25:49;27.34;;;19.64;;
1987;SDS011;12775;46.994;15.498;2022-12-31T07:28:32;29.18;;;21.88;;
1987;SDS011;12775;46.994;15.498;2022-12-31T07:30:55;26.24;;;18.74;;
1987;SDS011;12775;46.994;15.498;2022-12-31T07:33:27;37.56;;;26.68;;
1987;SDS011;12775;46.994;15.498;2022-12-31T07:36:01;45.44;;;28.36;;
1987;SDS011;12775;46.994;15.498;2022-12-31T07:38:49;37.80;;;30.50;;
1987;SDS011;12775;46.994;15.498;2022-12-31T07:41:31;33.04;;;26.22;;
1987;SDS011;12775;46.994;15.498;2022-12-31T07:46:47;25.42;;;21.02;;
1987;SDS011;12775;46.994;15.498;2022-12-31T07:49:12;26.76;;;20.26;;
1987;SDS011;12775;46.994;15.498;2022-12-31T07:51:41;20.18;;;17.96;;
1987;SDS011;12775;46.994;15.498;2022-12-31T07:54:09;25.80;;;21.82;;
1987;SDS011;12775;46.994;15.498;2022-12-31T07:56:37;27.56;;;24.50;;
1987;SDS011;12775;46.994;15.498;2022-12-31T07:59:40;26.64;;;21.42;;
1987;SDS011;12775;46.994;15.498;2022-12-31T08:02:12;29.32;;;25.46;;
1987;SDS011;12775;46.994;15.498;2022-12-31T08:04:47;27.96;;;21.54;;
1987;SDS011;12775;46.994;15.498;2022-12-31T08:07:27;22.58;;;19.26;;
1987;SDS011;12775;46.994;15.498;2022-12-31T08:12:50;27.00;;;20.54;;
1987;SDS011;12775;46.994;15.498;2022-12-31T08:15:18;26.08;;;21.30;;
1987;SDS011;12775;46.994;15.498;2022-12-31T08:17:47;34.50;;;26.88;;
1987;SDS011;12775;46.994;15.498;2022-12-31T08:20:17;26.20;;;23.40;;
1987;SDS011;12775;46.994;15.498;2022-12-31T08:22:50;29.04;;;24.56;;
1987;SDS011;12775;46.994;15.498;2022-12-31T08:25:16;25.10;;;20.46;;
1987;SDS011;12775;46.994;15.498;2022-12-31T08:30:20;21.88;;;19.58;;
1987;SDS011;12775;46.994;15.498;2022-12-31T08:32:54;21.02;;;17.90;;
1987;SDS011;12775;46.994;15.498;2022-12-31T08:35:27;19.04;;;16.62;;
1987;SDS011;12775;46.994;15.498;2022-12-31T08:41:03;19.70;;;14.74;;
1987;SDS011;12775;46.994;15.498;2022-12-31T08:43:41;16.10;;;12.92;;
1987;SDS011;12775;46.994;15.498;2022-12-31T08:46:24;16.34;;;13.72;;
1987;SDS011;12775;46.994;15.498;2022-12-31T08:48:49;14.90;;;13.44;;
1987;SDS011;12775;46.994;15.498;2022-12-31T08:51:18;14.66;;;13.18;;
1987;SDS011;12775;46.994;15.498;2022-12-31T08:53:46;16.84;;;14.44;;
1987;SDS011;12775;46.994;15.498;2022-12-31T08:56:20;16.20;;;13.30;;
1987;SDS011;12775;46.994;15.498;2022-12-31T08:58:59;14.90;;;13.26;;
1987;SDS011;12775;46.994;15.498;2022-12-31T09:01:23;17.16;;;14.80;;
1987;SDS011;12775;46.994;15.498;2022-12-31T09:06:26;20.24;;;15.90;;
1987;SDS011;12775;46.994;15.498;2022-12-31T09:09:02;18.78;;;15.50;;
1987;SDS011;12775;46.994;15.498;2022-12-31T09:11:33;17.74;;;16.02;;
1987;SDS011;12775;46.994;15.498;2022-12-31T09:14:18;22.52;;;17.68;;
1987;SDS011;12775;46.994;15.498;2022-12-31T09:16:55;17.70;;;15.12;;
1987;SDS011;12775;46.994;15.498;2022-12-31T09:19:22;18.34;;;14.60;;
1987;SDS011;12775;46.994;15.498;2022-12-31T09:21:50;21.04;;;18.68;;
1987;SDS011;12775;46.994;15.498;2022-12-31T09:24:18;15.16;;;13.56;;
1987;SDS011;12775;46.994;15.498;2022-12-31T09:29:51;19.88;;;16.56;;
1987;SDS011;12775;46.994;15.498;2022-12-31T09:32:34;19.00;;;15.72;;
1987;SDS011;12775;46.994;15.498;2022-12-31T09:35:05;17.46;;;15.66;;
1987;SDS011;12775;46.994;15.498;2022-12-31T09:37:48;28.50;;;17.42;;
1987;SDS011;12775;46.994;15.498;2022-12-31T09:40:25;18.50;;;16.60;;
1987;SDS011;12775;46.994;15.498;2022-12-31T09:43:09;18.66;;;16.66;;
1987;SDS011;12775;46.994;15.498;2022-12-31T09:45:36;22.20;;;18.10;;
1987;SDS011;12775;46.994;15.498;2022-12-31T09:48:08;18.56;;;16.62;;
1987;SDS011;12775;46.994;15.498;2022-12-31T09:50:42;17.56;;;15.72;;
1987;SDS011;12775;46.994;15.498;2022-12-31T09:56:12;21.40;;;16.52;;
1987;SDS011;12775;46.994;15.498;2022-12-31T09:58:47;26.06;;;18.62;;
1987;SDS011;12775;46.994;15.498;2022-12-31T10:02:22;28.84;;;24.20;;
1987;SDS011;12775;46.994;15.498;2022-12-31T10:04:15;27.90;;;23.04;;
1987;SDS011;12775;46.994;15.498;2022-12-31T10:07:00;26.08;;;20.42;;
1987;SDS011;12775;46.994;15.498;2022-12-31T10:12:33;25.84;;;21.30;;
1987;SDS011;12775;46.994;15.498;2022-12-31T10:15:03;20.36;;;18.14;;
1987;SDS011;12775;46.994;15.498;2022-12-31T10:17:48;22.40;;;20.10;;
1987;SDS011;12775;46.994;15.498;2022-12-31T10:20:17;26.26;;;20.56;;
1987;SDS011;12775;46.994;15.498;2022-12-31T10:25:39;23.38;;;20.18;;
1987;SDS011;12775;46.994;15.498;2022-12-31T10:31:29;25.34;;;21.42;;
1987;SDS011;12775;46.994;15.498;2022-12-31T10:34:00;27.18;;;20.06;;
1987;SDS011;12775;46.994;15.498;2022-12-31T10:36:29;25.84;;;22.64;;
1987;SDS011;12775;46.994;15.498;2022-12-31T10:38:54;28.30;;;22.54;;
1987;SDS011;12775;46.994;15.498;2022-12-31T10:41:37;40.74;;;28.86;;
1987;SDS011;12775;46.994;15.498;2022-12-31T10:47:01;41.92;;;29.28;;
1987;SDS011;12775;46.994;15.498;2022-12-31T10:49:33;37.72;;;27.04;;
1987;SDS011;12775;46.994;15.498;2022-12-31T10:52:07;26.24;;;22.76;;
1987;SDS011;12775;46.994;15.498;2022-12-31T10:54:36;31.98;;;23.36;;
1987;SDS011;12775;46.994;15.498;2022-12-31T10:57:10;23.82;;;21.08;;
1987;SDS011;12775;46.994;15.498;2022-12-31T10:59:48;27.90;;;21.66;;
1987;SDS011;12775;46.994;15.498;2022-12-31T11:02:30;29.02;;;22.44;;
1987;SDS011;12775;46.994;15.498;2022-12-31T11:07:43;28.72;;;21.82;;
1987;SDS011;12775;46.994;15.498;2022-12-31T11:10:13;28.78;;;25.08;;
1987;SDS011;12775;46.994;15.498;2022-12-31T11:15:49;27.72;;;24.20;;
1987;SDS011;12775;46.994;15.498;2022-12-31T11:18:16;32.24;;;26.66;;
1987;SDS011;12775;46.994;15.498;2022-12-31T11:21:01;32.00;;;25.32;;
1987;SDS011;12775;46.994;15.498;2022-12-31T11:23:38;28.64;;;25.56;;
1987;SDS011;12775;46.994;15.498;2022-12-31T11:26:10;30.14;;;26.96;;
1987;SDS011;12775;46.994;15.498;2022-12-31T11:28:41;32.06;;;26.18;;
1987;SDS011;12775;46.994;15.498;2022-12-31T11:31:11;26.18;;;23.20;;
1987;SDS011;12775;46.994;15.498;2022-12-31T11:33:42;25.12;;;22.28;;
1987;SDS011;12775;46.994;15.498;2022-12-31T11:36:43;24.18;;;20.64;;
1987;SDS011;12775;46.994;15.498;2022-12-31T11:39:14;27.08;;;20.58;;
1987;SDS011;12775;46.994;15.498;2022-12-31T11:41:47;28.86;;;21.96;;
1987;SDS011;12775;46.994;15.498;2022-12-31T11:44:24;25.48;;;19.24;;
1987;SDS011;12775;46.994;15.498;2022-12-31T11:47:15;17.98;;;14.98;;
1987;SDS011;12775;46.994;15.498;2022-12-31T11:49:46;17.22;;;14.06;;
1987;SDS011;12775;46.994;15.498;2022-12-31T11:52:30;14.76;;;11.40;;
1987;SDS011;12775;46.994;15.498;2022-12-31T11:55:01;13.78;;;10.66;;
1987;SDS011;12775;46.994;15.498;2022-12-31T11:57:41;12.16;;;9.40;;
1987;SDS011;12775;46.994;15.498;2022-12-31T12:00:15;10.70;;;9.68;;
1987;SDS011;12775;46.994;15.498;2022-12-31T12:02:43;12.26;;;9.24;;
1987;SDS011;12775;46.994;15.498;2022-12-31T12:05:13;10.78;;;9.38;;
1987;SDS011;12775;46.994;15.498;2022-12-31T12:07:39;12.42;;;10.80;;
1987;SDS011;12775;46.994;15.498;2022-12-31T12:12:51;12.20;;;8.74;;
1987;SDS011;12775;46.994;15.498;2022-12-31T12:15:19;13.36;;;9.60;;
1987;SDS011;12775;46.994;15.498;2022-12-31T12:18:08;9.30;;;8.24;;
1987;SDS011;12775;46.994;15.498;2022-12-31T12:20:37;9.58;;;8.00;;
1987;SDS011;12775;46.994;15.498;2022-12-31T12:23:15;11.28;;;7.20;;
1987;SDS011;12775;46.994;15.498;2022-12-31T12:25:43;8.30;;;6.32;;
1987;SDS011;12775;46.994;15.498;2022-12-31T12:28:26;9.08;;;6.42;;
1987;SDS011;12775;46.994;15.498;2022-12-31T12:30:56;9.32;;;7.96;;
1987;SDS011;12775;46.994;15.498;2022-12-31T12:33:24;10.14;;;7.70;;
1987;SDS011;12775;46.994;15.498;2022-12-31T12:35:51;8.84;;;7.78;;
1987;SDS011;12775;46.994;15.498;2022-12-31T12:38:21;13.32;;;10.08;;
1987;SDS011;12775;46.994;15.498;2022-12-31T12:40:52;12.96;;;8.82;;
1987;SDS011;12775;46.994;15.498;2022-12-31T12:43:20;10.60;;;9.58;;
1987;SDS011;12775;46.994;15.498;2022-12-31T12:45:50;9.80;;;8.80;;
1987;SDS011;12775;46.994;15.498;2022-12-31T12:48:19;10.44;;;9.42;;
1987;SDS011;12775;46.994;15.498;2022-12-31T12:50:46;9.84;;;8.84;;
1987;SDS011;12775;46.994;15.498;2022-12-31T12:53:33;9.38;;;8.48;;
1987;SDS011;12775;46.994;15.498;2022-12-31T12:56:03;11.26;;;9.46;;
1987;SDS011;12775;46.994;15.498;2022-12-31T12:58:52;13.26;;;8.50;;
1987;SDS011;12775;46.994;15.498;2022-12-31T13:01:39;10.76;;;9.66;;
1987;SDS011;12775;46.994;15.498;2022-12-31T13:09:30;14.08;;;9.60;;
1987;SDS011;12775;46.994;15.498;2022-12-31T13:13:07;16.10;;;11.40;;
1987;SDS011;12775;46.994;15.498;2022-12-31T13:18:06;12.46;;;9.52;;
1987;SDS011;12775;46.994;15.498;2022-12-31T13:20:18;12.96;;;10.30;;
1987;SDS011;12775;46.994;15.498;2022-12-31T13:22:58;11.92;;;10.02;;
1987;SDS011;12775;46.994;15.498;2022-12-31T13:25:51;15.36;;;10.84;;
1987;SDS011;12775;46.994;15.498;2022-12-31T13:28:18;14.84;;;10.58;;
1987;SDS011;12775;46.994;15.498;2022-12-31T13:30:47;13.80;;;11.94;;
1987;SDS011;12775;46.994;15.498;2022-12-31T13:33:16;13.60;;;10.88;;
1987;SDS011;12775;46.994;15.498;2022-12-31T13:35:48;16.30;;;10.22;;
1987;SDS011;12775;46.994;15.498;2022-12-31T13:38:26;12.64;;;10.12;;
1987;SDS011;12775;46.994;15.498;2022-12-31T13:41:00;9.86;;;8.86;;
1987;SDS011;12775;46.994;15.498;2022-12-31T13:46:35;19.74;;;9.90;;
1987;SDS011;12775;46.994;15.498;2022-12-31T13:49:03;11.58;;;9.42;;
1987;SDS011;12775;46.994;15.498;2022-12-31T13:54:08;13.30;;;9.86;;
1987;SDS011;12775;46.994;15.498;2022-12-31T13:56:35;11.74;;;8.72;;
1987;SDS011;12775;46.994;15.498;2022-12-31T13:59:05;11.84;;;10.60;;
1987;SDS011;12775;46.994;15.498;2022-12-31T14:01:50;18.80;;;9.96;;
1987;SDS011;12775;46.994;15.498;2022-12-31T14:04:34;19.06;;;11.28;;
1987;SDS011;12775;46.994;15.498;2022-12-31T14:07:01;14.88;;;11.50;;
1987;SDS011;12775;46.994;15.498;2022-12-31T14:09:28;14.84;;;12.88;;
1987;SDS011;12775;46.994;15.498;2022-12-31T14:12:02;16.22;;;10.90;;
1987;SDS011;12775;46.994;15.498;2022-12-31T14:14:45;14.78;;;12.02;;
1987;SDS011;12775;46.994;15.498;2022-12-31T14:22:43;16.38;;;10.94;;
1987;SDS011;12775;46.994;15.498;2022-12-31T14:25:16;13.82;;;10.78;;
1987;SDS011;12775;46.994;15.498;2022-12-31T14:27:45;12.90;;;11.38;;
1987;SDS011;12775;46.994;15.498;2022-12-31T14:30:14;13.04;;;10.84;;
1987;SDS011;12775;46.994;15.498;2022-12-31T14:32:48;13.06;;;10.82;;
1987;SDS011;12775;46.994;15.498;2022-12-31T14:35:23;14.96;;;11.22;;
1987;SDS011;12775;46.994;15.498;2022-12-31T14:37:53;22.12;;;11.42;;
1987;SDS011;12775;46.994;15.498;2022-12-31T14:40:40;15.12;;;9.96;;
1987;SDS011;12775;46.994;15.498;2022-12-31T14:43:18;13.76;;;10.50;;
1987;SDS011;12775;46.994;15.498;2022-12-31T14:45:59;13.46;;;10.30;;
1987;SDS011;12775;46.994;15.498;2022-12-31T14:49:01;16.52;;;10.76;;
1987;SDS011;12775;46.994;15.498;2022-12-31T14:51:27;14.20;;;11.78;;
1987;SDS011;12775;46.994;15.498;2022-12-31T14:53:54;13.84;;;11.68;;
1987;SDS011;12775;46.994;15.498;2022-12-31T14:56:31;18.50;;;12.06;;
1987;SDS011;12775;46.994;15.498;2022-12-31T15:01:44;20.46;;;13.76;;
1987;SDS011;12775;46.994;15.498;2022-12-31T15:04:13;19.70;;;13.50;;
1987;SDS011;12775;46.994;15.498;2022-12-31T15:06:43;28.92;;;14.68;;
1987;SDS011;12775;46.994;15.498;2022-12-31T15:09:28;18.80;;;13.48;;
1987;SDS011;12775;46.994;15.498;2022-12-31T15:11:56;25.04;;;13.86;;
1987;SDS011;12775;46.994;15.498;2022-12-31T15:17:17;17.48;;;12.52;;
1987;SDS011;12775;46.994;15.498;2022-12-31T15:19:48;28.64;;;15.88;;
1987;SDS011;12775;46.994;15.498;2022-12-31T15:22:25;17.34;;;15.40;;
1987;SDS011;12775;46.994;15.498;2022-12-31T15:24:50;25.46;;;15.62;;
1987;SDS011;12775;46.994;15.498;2022-12-31T15:27:49;24.28;;;18.30;;
1987;SDS011;12775;46.994;15.498;2022-12-31T15:30:00;27.46;;;20.20;;
1987;SDS011;12775;46.994;15.498;2022-12-31T15:32:33;28.88;;;21.24;;
1987;SDS011;12775;46.994;15.498;2022-12-31T15:35:00;29.88;;;21.58;;
1987;SDS011;12775;46.994;15.498;2022-12-31T15:37:31;27.50;;;21.00;;
1987;SDS011;12775;46.994;15.498;2022-12-31T15:40:05;29.26;;;21.10;;
1987;SDS011;12775;46.994;15.498;2022-12-31T15:42:49;29.20;;;21.02;;
1987;SDS011;12775;46.994;15.498;2022-12-31T15:45:20;23.90;;;19.88;;
1987;SDS011;12775;46.994;15.498;2022-12-31T15:47:47;19.66;;;15.64;;
1987;SDS011;12775;46.994;15.498;2022-12-31T15:50:16;21.36;;;16.90;;
1987;SDS011;12775;46.994;15.498;2022-12-31T15:52:42;22.52;;;18.00;;
1987;SDS011;12775;46.994;15.498;2022-12-31T15:55:18;27.06;;;16.90;;
1987;SDS011;12775;46.994;15.498;2022-12-31T15:57:47;19.00;;;15.68;;